Time;durP1;ratioP1;P1;durP2;ratioP2;P2;SDS_P1;SDS_P2;PMS_P1;PMS_P2;Temp;Humidity;BMP_temperature;BMP_pressure;BME280_temperature;BME280_humidity;BME280_pressure;Samples;Min_cycle;Max_cycle;Signal;HPM_P1;HPM_P2
2023/10/08 00:01:14;;;;;;;2.78;1.08;;;;;;;;;;4825760;29;20216;-46
2023/10/08 00:03:48;;;;;;;3.80;1.10;;;;;;;;;;4825232;29;20220;-44
2023/10/08 00:06:21;;;;;;;6.88;1.20;;;;;;;;;;4826413;29;20207;-44
2023/10/08 00:08:48;;;;;;;6.28;1.25;;;;;;;;;;4825972;29;20308;-44
2023/10/08 00:11:16;;;;;;;3.53;1.00;;;;;;;;;;4826146;29;20220;-44
2023/10/08 00:13:44;;;;;;;1.45;0.93;;;;;;;;;;4826197;29;20215;-44
2023/10/08 00:16:16;;;;;;;1.67;1.05;;;;;;;;;;4826131;29;20212;-44
2023/10/08 00:18:50;;;;;;;5.30;1.08;;;;;;;;;;4825866;29;20216;-44
2023/10/08 00:21:26;;;;;;;5.40;1.30;;;;;;;;;;4825756;29;20211;-44
2023/10/08 00:23:57;;;;;;;2.10;1.00;;;;;;;;;;4826129;29;20207;-44
2023/10/08 00:26:27;;;;;;;4.80;1.35;;;;;;;;;;4825859;29;20221;-43
2023/10/08 00:28:59;;;;;;;4.22;1.20;;;;;;;;;;4826048;29;20677;-45
2023/10/08 00:31:31;;;;;;;4.85;1.13;;;;;;;;;;4825935;29;20216;-44
2023/10/08 00:33:58;;;;;;;5.82;1.30;;;;;;;;;;4825970;29;20216;-44
2023/10/08 00:36:25;;;;;;;3.97;1.27;;;;;;;;;;4839524;29;20677;-44
2023/10/08 00:38:59;;;;;;;4.15;1.30;;;;;;;;;;4825488;29;20220;-47
2023/10/08 00:41:33;;;;;;;6.93;1.65;;;;;;;;;;4825896;29;20210;-44
2023/10/08 00:44:00;;;;;;;5.90;1.25;;;;;;;;;;4839498;29;20219;-43
2023/10/08 00:46:32;;;;;;;3.05;1.13;;;;;;;;;;4839421;29;20220;-43
2023/10/08 00:49:24;;;;;;;2.83;1.17;;;;;;;;;;4825283;29;20231;-44
2023/10/08 00:52:29;;;;;;;4.85;0.95;;;;;;;;;;4825920;29;20204;-43
2023/10/08 00:57:36;;;;;;;8.23;1.08;;;;;;;;;;4839547;29;20219;-45
2023/10/08 01:00:06;;;;;;;4.55;1.40;;;;;;;;;;4824392;29;20642;-44
2023/10/08 01:02:45;;;;;;;4.38;1.30;;;;;;;;;;4824214;29;20212;-43
2023/10/08 01:05:25;;;;;;;4.55;1.10;;;;;;;;;;4825598;29;20257;-44
2023/10/08 01:07:55;;;;;;;4.28;1.00;;;;;;;;;;4825489;29;20240;-45
2023/10/08 01:10:24;;;;;;;2.53;1.00;;;;;;;;;;4825203;29;20208;-44
2023/10/08 01:15:28;;;;;;;9.02;1.38;;;;;;;;;;4825370;29;20669;-46
2023/10/08 01:18:00;;;;;;;3.92;1.20;;;;;;;;;;4825076;29;20269;-45
2023/10/08 01:20:34;;;;;;;5.15;1.25;;;;;;;;;;4839017;29;20269;-44
2023/10/08 01:23:10;;;;;;;7.10;1.70;;;;;;;;;;4825201;29;20216;-43
2023/10/08 01:25:38;;;;;;;2.25;0.80;;;;;;;;;;4824927;29;20572;-44
2023/10/08 01:28:17;;;;;;;2.35;0.98;;;;;;;;;;4825020;29;20232;-44
2023/10/08 01:30:46;;;;;;;2.00;1.13;;;;;;;;;;4824887;29;20216;-43
2023/10/08 01:33:16;;;;;;;5.03;1.10;;;;;;;;;;4853367;29;20208;-44
2023/10/08 01:35:43;;;;;;;4.25;1.20;;;;;;;;;;4824723;29;20222;-43
2023/10/08 01:38:13;;;;;;;2.50;1.00;;;;;;;;;;4838426;29;20229;-44
2023/10/08 01:40:41;;;;;;;4.00;1.08;;;;;;;;;;4838647;29;20204;-44
2023/10/08 01:43:10;;;;;;;2.08;1.00;;;;;;;;;;4838557;29;20245;-45
2023/10/08 01:45:42;;;;;;;5.20;1.27;;;;;;;;;;4825394;29;20212;-45
2023/10/08 01:48:11;;;;;;;2.88;1.20;;;;;;;;;;4824748;29;20243;-45
2023/10/08 01:50:38;;;;;;;3.88;2.15;;;;;;;;;;4838412;29;20232;-43
2023/10/08 01:53:09;;;;;;;4.10;2.35;;;;;;;;;;4838856;29;20239;-45
2023/10/08 01:55:46;;;;;;;7.85;2.55;;;;;;;;;;4825303;29;20592;-45
2023/10/08 01:58:18;;;;;;;4.00;1.90;;;;;;;;;;4838573;29;20223;-55
2023/10/08 02:00:48;;;;;;;4.65;2.92;;;;;;;;;;4838632;29;20208;-43
2023/10/08 02:03:17;;;;;;;5.90;3.47;;;;;;;;;;4824438;29;20216;-43
2023/10/08 02:05:46;;;;;;;4.55;2.83;;;;;;;;;;4838427;29;20680;-45
2023/10/08 02:08:16;;;;;;;5.22;1.80;;;;;;;;;;4838536;29;20252;-46
2023/10/08 02:10:47;;;;;;;2.13;1.30;;;;;;;;;;4840413;29;20208;-46
2023/10/08 02:13:15;;;;;;;2.85;1.50;;;;;;;;;;4828034;29;20272;-50
2023/10/08 02:15:51;;;;;;;2.42;1.20;;;;;;;;;;4827943;29;20272;-48
2023/10/08 02:18:20;;;;;;;3.65;1.65;;;;;;;;;;4828187;29;20216;-45
2023/10/08 02:20:48;;;;;;;2.78;1.20;;;;;;;;;;4827843;29;20235;-44
2023/10/08 02:23:17;;;;;;;4.13;1.30;;;;;;;;;;4827748;29;20212;-43
2023/10/08 02:25:45;;;;;;;2.63;1.60;;;;;;;;;;4827873;29;20235;-43
2023/10/08 02:28:15;;;;;;;3.67;1.58;;;;;;;;;;4841615;29;20701;-45
2023/10/08 02:30:43;;;;;;;6.25;1.70;;;;;;;;;;4827645;29;20706;-45
2023/10/08 02:33:16;;;;;;;6.57;1.52;;;;;;;;;;4841752;29;20212;-44
2023/10/08 02:35:45;;;;;;;3.85;1.20;;;;;;;;;;4827430;29;20212;-46
2023/10/08 02:38:21;;;;;;;4.30;1.52;;;;;;;;;;4827570;29;20230;-45
2023/10/08 02:40:48;;;;;;;3.80;1.27;;;;;;;;;;4827482;29;20239;-44
2023/10/08 02:43:17;;;;;;;3.53;1.30;;;;;;;;;;4827356;29;20249;-44
2023/10/08 02:45:49;;;;;;;8.32;1.52;;;;;;;;;;4827705;29;20243;-45
2023/10/08 02:48:17;;;;;;;5.22;1.48;;;;;;;;;;4841479;29;20280;-45
2023/10/08 02:50:45;;;;;;;2.45;1.42;;;;;;;;;;4827224;29;20204;-45
2023/10/08 02:53:17;;;;;;;5.45;1.75;;;;;;;;;;4827292;29;20745;-45
2023/10/08 02:55:46;;;;;;;4.80;1.60;;;;;;;;;;4827673;29;20240;-43
2023/10/08 02:58:15;;;;;;;4.50;1.45;;;;;;;;;;4841610;29;20211;-47
2023/10/08 03:00:43;;;;;;;6.50;1.40;;;;;;;;;;4841449;29;20666;-45
2023/10/08 03:03:18;;;;;;;3.17;1.50;;;;;;;;;;4827243;29;20222;-52
2023/10/08 03:05:48;;;;;;;2.90;1.38;;;;;;;;;;4841455;29;20222;-44
2023/10/08 03:08:20;;;;;;;7.07;1.45;;;;;;;;;;4826965;29;20279;-46
2023/10/08 03:10:48;;;;;;;4.88;1.35;;;;;;;;;;4841203;29;20213;-44
2023/10/08 03:13:17;;;;;;;2.42;1.33;;;;;;;;;;4826959;29;20212;-43
2023/10/08 03:15:57;;;;;;;7.30;1.60;;;;;;;;;;4827116;29;20212;-45
2023/10/08 03:18:25;;;;;;;3.60;1.52;;;;;;;;;;4826816;29;20225;-45
2023/10/08 03:20:52;;;;;;;6.05;1.83;;;;;;;;;;4826828;29;20270;-44
2023/10/08 03:23:33;;;;;;;7.25;1.70;;;;;;;;;;4841041;29;20216;-45
2023/10/08 03:26:11;;;;;;;4.38;1.70;;;;;;;;;;4826661;29;20290;-52
2023/10/08 03:28:41;;;;;;;3.33;1.65;;;;;;;;;;4826586;29;20240;-45
2023/10/08 03:31:16;;;;;;;5.60;1.80;;;;;;;;;;4840957;29;20295;-46
2023/10/08 03:33:49;;;;;;;5.07;2.22;;;;;;;;;;4840574;29;20222;-45
2023/10/08 03:36:29;;;;;;;3.90;2.00;;;;;;;;;;4826560;29;20208;-46
2023/10/08 03:38:57;;;;;;;6.85;1.80;;;;;;;;;;4826362;29;20216;-45
2023/10/08 03:41:29;;;;;;;2.78;1.63;;;;;;;;;;4826399;29;20215;-46
2023/10/08 03:44:05;;;;;;;7.60;1.70;;;;;;;;;;4826803;29;20220;-44
2023/10/08 03:46:39;;;;;;;6.97;1.80;;;;;;;;;;4826537;29;20211;-45
2023/10/08 03:49:14;;;;;;;2.67;1.70;;;;;;;;;;4826495;29;20290;-44
2023/10/08 03:51:42;;;;;;;9.27;1.80;;;;;;;;;;4825618;29;20214;-45
2023/10/08 03:56:36;;;;;;;4.78;1.75;;;;;;;;;;4825578;29;20670;-45
2023/10/08 03:59:12;;;;;;;4.25;1.80;;;;;;;;;;4826213;29;20227;-45
2023/10/08 04:01:41;;;;;;;3.83;1.95;;;;;;;;;;4825874;29;20200;-47
2023/10/08 04:04:15;;;;;;;3.30;1.70;;;;;;;;;;4824787;29;20219;-48
2023/10/08 04:06:49;;;;;;;4.13;2.22;;;;;;;;;;4826319;29;20231;-43
2023/10/08 04:14:18;;;;;;;4.93;2.30;;;;;;;;;;4825943;29;20223;-44
2023/10/08 04:16:46;;;;;;;5.80;2.28;;;;;;;;;;4825708;29;20218;-43
2023/10/08 04:19:17;;;;;;;6.68;2.10;;;;;;;;;;4826019;29;20220;-43
2023/10/08 04:21:45;;;;;;;7.80;2.40;;;;;;;;;;4825611;29;20666;-43
2023/10/08 04:24:14;;;;;;;8.65;2.28;;;;;;;;;;4825684;29;20212;-44
2023/10/08 04:26:42;;;;;;;6.72;1.92;;;;;;;;;;4825522;29;20768;-48
2023/10/08 04:29:09;;;;;;;5.65;2.38;;;;;;;;;;4825397;29;20232;-45
2023/10/08 04:31:37;;;;;;;7.28;2.22;;;;;;;;;;4825428;29;20220;-46
2023/10/08 04:34:22;;;;;;;7.30;2.22;;;;;;;;;;4824788;29;20689;-43
2023/10/08 04:36:56;;;;;;;6.20;2.70;;;;;;;;;;4825639;29;20212;-50
2023/10/08 04:39:31;;;;;;;6.97;2.78;;;;;;;;;;4825250;29;20673;-44
2023/10/08 04:42:09;;;;;;;5.05;2.70;;;;;;;;;;4825873;29;20203;-45
2023/10/08 04:44:40;;;;;;;6.80;2.80;;;;;;;;;;4825342;29;20677;-45
2023/10/08 04:47:31;;;;;;;4.22;2.30;;;;;;;;;;4825400;29;20367;-46
2023/10/08 04:49:56;;;;;;;7.80;2.13;;;;;;;;;;4825163;29;20250;-44
2023/10/08 04:52:25;;;;;;;8.30;2.45;;;;;;;;;;4825388;29;20269;-45
2023/10/08 04:54:54;;;;;;;9.45;2.80;;;;;;;;;;4825133;29;20236;-44
2023/10/08 04:57:25;;;;;;;5.93;2.33;;;;;;;;;;4824946;29;20215;-44
2023/10/08 04:59:57;;;;;;;8.10;2.85;;;;;;;;;;4839089;29;20216;-44
2023/10/08 05:02:49;;;;;;;6.93;2.90;;;;;;;;;;4825072;29;20208;-45
2023/10/08 05:28:46;;;;;;;4.35;1.92;;;;;;;;;;4824890;29;20211;-44
2023/10/08 05:36:35;;;;;;;3.75;1.42;;;;;;;;;;4824320;29;20235;-46
2023/10/08 05:41:55;;;;;;;3.85;1.15;;;;;;;;;;4831364;29;20239;-44
2023/10/08 05:44:38;;;;;;;5.15;1.45;;;;;;;;;;4831277;29;20258;-44
2023/10/08 05:57:07;;;;;;;4.07;1.27;;;;;;;;;;4823774;29;20239;-45
2023/10/08 06:13:05;;;;;;;2.25;1.00;;;;;;;;;;4823613;29;20232;-47
2023/10/08 06:16:31;;;;;;;1.75;0.90;;;;;;;;;;4823831;29;20255;-44
2023/10/08 06:18:29;;;;;;;1.77;0.98;;;;;;;;;;4825901;29;20562;-44
2023/10/08 06:21:11;;;;;;;2.10;0.90;;;;;;;;;;4823552;29;20232;-45
2023/10/08 06:23:41;;;;;;;2.63;0.80;;;;;;;;;;4823267;29;20236;-45
2023/10/08 06:28:41;;;;;;;2.10;0.70;;;;;;;;;;4823550;29;20228;-45
2023/10/08 06:31:11;;;;;;;3.58;1.20;;;;;;;;;;4826512;29;20234;-48
2023/10/08 06:33:40;;;;;;;3.30;1.10;;;;;;;;;;4831629;29;20230;-46
2023/10/08 06:38:44;;;;;;;1.30;0.90;;;;;;;;;;4825637;29;20231;-48
2023/10/08 06:43:49;;;;;;;2.13;0.90;;;;;;;;;;4823016;29;20251;-50
2023/10/08 06:46:21;;;;;;;3.40;0.80;;;;;;;;;;4825749;29;20231;-44
2023/10/08 06:48:49;;;;;;;2.45;0.85;;;;;;;;;;4822983;29;20255;-44
2023/10/08 06:51:19;;;;;;;2.03;0.80;;;;;;;;;;4830535;29;20626;-45
2023/10/08 06:53:47;;;;;;;1.52;0.70;;;;;;;;;;4828933;29;20227;-48
2023/10/08 06:56:16;;;;;;;2.63;1.08;;;;;;;;;;4827079;29;20224;-45
2023/10/08 06:58:52;;;;;;;1.23;0.80;;;;;;;;;;4825867;29;20223;-45
2023/10/08 07:01:21;;;;;;;4.95;0.65;;;;;;;;;;4825829;29;20231;-47
2023/10/08 07:03:49;;;;;;;2.30;0.77;;;;;;;;;;4830954;29;20231;-47
2023/10/08 07:06:16;;;;;;;4.43;0.80;;;;;;;;;;4834766;29;20228;-44
2023/10/08 07:08:52;;;;;;;3.22;0.82;;;;;;;;;;4843603;29;20250;-47
2023/10/08 07:11:20;;;;;;;1.92;0.80;;;;;;;;;;4839720;29;20234;-47
2023/10/08 07:13:48;;;;;;;0.93;0.57;;;;;;;;;;4825918;29;20602;-44
2023/10/08 07:16:17;;;;;;;1.58;0.60;;;;;;;;;;4826214;29;20717;-47
2023/10/08 07:18:51;;;;;;;2.17;0.60;;;;;;;;;;4825971;29;20236;-46
2023/10/08 07:21:28;;;;;;;2.47;0.65;;;;;;;;;;4825780;29;20632;-46
2023/10/08 07:23:56;;;;;;;0.77;0.50;;;;;;;;;;4825767;29;20250;-45
2023/10/08 07:26:37;;;;;;;3.08;0.70;;;;;;;;;;4836135;29;20306;-43
2023/10/08 07:29:08;;;;;;;4.25;0.82;;;;;;;;;;4844414;29;20275;-44
2023/10/08 07:31:37;;;;;;;1.95;0.73;;;;;;;;;;4844511;29;20239;-46
2023/10/08 07:34:25;;;;;;;0.60;0.60;;;;;;;;;;4843088;29;20580;-47
2023/10/08 07:36:54;;;;;;;2.00;0.57;;;;;;;;;;4832500;29;20319;-47
2023/10/08 07:39:26;;;;;;;1.35;0.60;;;;;;;;;;4825797;29;20279;-47
2023/10/08 07:41:54;;;;;;;1.55;0.60;;;;;;;;;;4825824;29;20246;-45
2023/10/08 07:44:24;;;;;;;2.08;0.57;;;;;;;;;;4825910;29;20259;-47
2023/10/08 07:46:55;;;;;;;0.80;0.60;;;;;;;;;;4824860;29;20228;-54
2023/10/08 07:49:25;;;;;;;2.90;0.52;;;;;;;;;;4825107;29;20243;-45
2023/10/08 07:51:52;;;;;;;0.85;0.60;;;;;;;;;;4807370;29;20324;-46
2023/10/08 07:54:22;;;;;;;1.13;0.70;;;;;;;;;;4807411;29;20259;-48
2023/10/08 07:57:00;;;;;;;4.55;0.52;;;;;;;;;;4807437;29;20245;-42
2023/10/08 07:59:27;;;;;;;1.27;0.60;;;;;;;;;;4807363;29;20240;-46
2023/10/08 08:01:55;;;;;;;3.13;0.90;;;;;;;;;;4807276;29;20269;-45
2023/10/08 08:04:22;;;;;;;0.82;0.60;;;;;;;;;;4807982;29;20236;-46
2023/10/08 08:06:50;;;;;;;4.25;0.65;;;;;;;;;;4806994;29;20269;-47
2023/10/08 08:09:19;;;;;;;1.80;0.80;;;;;;;;;;4806825;29;20233;-43
2023/10/08 08:11:47;;;;;;;1.83;0.98;;;;;;;;;;4806966;29;20233;-45
2023/10/08 08:14:16;;;;;;;0.40;0.38;;;;;;;;;;4832523;29;20287;-44
2023/10/08 08:16:48;;;;;;;2.80;0.70;;;;;;;;;;4831277;29;20224;-49
2023/10/08 08:19:16;;;;;;;0.82;0.60;;;;;;;;;;4837509;29;20227;-47
2023/10/08 08:21:46;;;;;;;3.97;0.77;;;;;;;;;;4833153;29;20236;-46
2023/10/08 08:24:28;;;;;;;1.70;0.63;;;;;;;;;;4829534;29;20282;-45
2023/10/08 08:27:08;;;;;;;1.17;0.52;;;;;;;;;;4824647;29;20234;-46
2023/10/08 08:29:44;;;;;;;2.28;0.50;;;;;;;;;;4827860;29;20732;-51
2023/10/08 08:32:21;;;;;;;0.95;0.50;;;;;;;;;;4824603;29;20232;-44
2023/10/08 08:34:52;;;;;;;0.77;0.50;;;;;;;;;;4822704;29;20227;-50
2023/10/08 08:37:26;;;;;;;1.20;0.57;;;;;;;;;;4823068;29;20923;-47
2023/10/08 08:39:58;;;;;;;2.30;0.70;;;;;;;;;;4837918;29;20224;-46
2023/10/08 08:42:29;;;;;;;1.23;0.47;;;;;;;;;;4824995;29;20293;-47
2023/10/08 08:44:57;;;;;;;0.85;0.50;;;;;;;;;;4823900;29;20216;-48
2023/10/08 08:47:28;;;;;;;1.35;0.68;;;;;;;;;;4839871;29;20304;-47
2023/10/08 08:49:57;;;;;;;2.35;0.82;;;;;;;;;;4837851;29;20244;-47
2023/10/08 08:52:25;;;;;;;1.00;0.60;;;;;;;;;;4824182;29;20232;-50
2023/10/08 08:54:53;;;;;;;1.38;0.50;;;;;;;;;;4825090;29;20240;-47
2023/10/08 08:57:20;;;;;;;2.00;0.80;;;;;;;;;;4834875;29;20238;-47
2023/10/08 08:59:53;;;;;;;1.40;0.60;;;;;;;;;;4838734;29;20239;-50
2023/10/08 09:02:22;;;;;;;1.75;0.75;;;;;;;;;;4822248;29;20220;-46
2023/10/08 09:04:53;;;;;;;1.33;0.80;;;;;;;;;;4820582;29;20223;-48
2023/10/08 09:07:23;;;;;;;1.65;0.50;;;;;;;;;;4822418;29;20626;-54
2023/10/08 09:09:57;;;;;;;1.25;0.65;;;;;;;;;;4822158;29;20236;-49
2023/10/08 09:12:26;;;;;;;2.13;0.77;;;;;;;;;;4824152;29;20231;-49
2023/10/08 09:15:02;;;;;;;0.65;0.50;;;;;;;;;;4824023;29;20350;-48
2023/10/08 09:17:33;;;;;;;1.63;0.60;;;;;;;;;;4823031;29;20713;-47
2023/10/08 09:20:01;;;;;;;1.67;0.60;;;;;;;;;;4823685;29;20228;-49
2023/10/08 09:22:29;;;;;;;2.53;0.70;;;;;;;;;;4826946;29;20254;-48
2023/10/08 09:24:57;;;;;;;2.03;0.47;;;;;;;;;;4827099;29;20224;-46
2023/10/08 09:27:26;;;;;;;1.42;0.68;;;;;;;;;;4823679;29;20234;-48
2023/10/08 09:29:55;;;;;;;2.53;0.88;;;;;;;;;;4810105;29;20247;-47
2023/10/08 09:32:25;;;;;;;1.30;0.57;;;;;;;;;;4823926;29;20236;-47
2023/10/08 09:34:53;;;;;;;1.35;0.50;;;;;;;;;;4824893;29;20228;-43
2023/10/08 09:37:22;;;;;;;0.95;0.52;;;;;;;;;;4824806;29;20220;-45
2023/10/08 09:39:51;;;;;;;0.65;0.40;;;;;;;;;;4823786;29;20571;-43
2023/10/08 09:42:22;;;;;;;2.75;0.70;;;;;;;;;;4823511;29;20689;-43
2023/10/08 09:44:49;;;;;;;1.45;0.50;;;;;;;;;;4824902;29;20670;-50
2023/10/08 09:47:24;;;;;;;0.68;0.50;;;;;;;;;;4824692;29;20730;-48
2023/10/08 09:50:11;;;;;;;1.15;0.50;;;;;;;;;;4824709;29;20720;-47
2023/10/08 09:53:04;;;;;;;1.58;0.50;;;;;;;;;;4824684;29;20212;-49
2023/10/08 09:55:31;;;;;;;1.17;0.52;;;;;;;;;;4838268;29;20289;-43
2023/10/08 09:57:58;;;;;;;1.38;0.50;;;;;;;;;;4824894;29;20208;-44
2023/10/08 10:00:30;;;;;;;1.30;0.50;;;;;;;;;;4823276;29;20219;-44
2023/10/08 10:03:01;;;;;;;1.27;0.50;;;;;;;;;;4823490;29;20272;-45
2023/10/08 10:05:30;;;;;;;1.98;0.60;;;;;;;;;;4824728;29;20239;-44
2023/10/08 10:07:58;;;;;;;2.00;0.65;;;;;;;;;;4823359;29;20207;-45
2023/10/08 10:10:27;;;;;;;3.28;0.65;;;;;;;;;;4824448;29;20285;-44
2023/10/08 10:13:00;;;;;;;1.02;0.50;;;;;;;;;;4824371;29;20268;-45
2023/10/08 10:15:30;;;;;;;1.20;0.50;;;;;;;;;;4824489;29;20216;-47
2023/10/08 10:18:19;;;;;;;1.75;0.63;;;;;;;;;;4824632;29;20219;-43
2023/10/08 10:20:54;;;;;;;4.18;0.60;;;;;;;;;;4824494;29;20219;-44
2023/10/08 10:23:39;;;;;;;0.60;0.30;;;;;;;;;;4823174;29;20693;-43
2023/10/08 10:26:24;;;;;;;1.52;0.50;;;;;;;;;;4824561;29;20223;-52
2023/10/08 10:29:19;;;;;;;3.17;0.68;;;;;;;;;;4824322;29;20632;-46
2023/10/08 10:31:52;;;;;;;3.00;0.40;;;;;;;;;;4826937;29;20231;-44
2023/10/08 10:34:27;;;;;;;1.00;0.50;;;;;;;;;;4827900;29;20247;-44
2023/10/08 10:39:55;;;;;;;1.17;0.68;;;;;;;;;;4827590;29;20234;-44
2023/10/08 10:42:22;;;;;;;1.55;0.60;;;;;;;;;;4827345;29;20212;-45
2023/10/08 10:44:49;;;;;;;2.28;0.70;;;;;;;;;;4827353;29;20218;-46
2023/10/08 10:52:31;;;;;;;0.93;0.50;;;;;;;;;;4827360;29;20212;-45
2023/10/08 10:55:22;;;;;;;0.68;0.50;;;;;;;;;;4827438;29;20255;-44
2023/10/08 10:57:55;;;;;;;1.40;0.40;;;;;;;;;;4827547;29;20223;-45
2023/10/08 11:03:17;;;;;;;1.58;0.77;;;;;;;;;;4827121;29;20265;-45
2023/10/08 11:05:48;;;;;;;1.63;0.60;;;;;;;;;;4827734;29;20204;-45
2023/10/08 11:08:18;;;;;;;0.50;0.32;;;;;;;;;;4825869;29;20257;-45
2023/10/08 11:10:58;;;;;;;1.73;0.47;;;;;;;;;;4826904;29;20243;-44
2023/10/08 11:13:37;;;;;;;1.10;0.60;;;;;;;;;;4827355;29;20211;-46
2023/10/08 11:16:07;;;;;;;1.23;0.50;;;;;;;;;;4827339;29;20232;-43
2023/10/08 11:18:35;;;;;;;3.33;0.52;;;;;;;;;;4827044;29;20216;-44
2023/10/08 11:21:15;;;;;;;0.80;0.43;;;;;;;;;;4826883;29;20216;-55
2023/10/08 11:23:59;;;;;;;1.58;0.65;;;;;;;;;;4826895;29;20286;-44
2023/10/08 11:26:39;;;;;;;1.70;0.50;;;;;;;;;;4826958;29;20232;-44
2023/10/08 11:29:14;;;;;;;0.73;0.50;;;;;;;;;;4826945;29;20204;-49
2023/10/08 11:31:42;;;;;;;1.27;0.77;;;;;;;;;;4826752;29;20249;-45
2023/10/08 11:34:13;;;;;;;2.58;0.73;;;;;;;;;;4825482;29;20215;-45
2023/10/08 11:36:52;;;;;;;0.70;0.52;;;;;;;;;;4827038;29;20280;-45
2023/10/08 11:39:29;;;;;;;1.95;0.47;;;;;;;;;;4826561;29;20670;-54
2023/10/08 11:42:16;;;;;;;0.95;0.47;;;;;;;;;;4824823;29;20272;-44
2023/10/08 11:44:44;;;;;;;1.58;0.70;;;;;;;;;;4821501;29;20250;-49
2023/10/08 11:47:12;;;;;;;1.70;0.47;;;;;;;;;;4824102;29;20224;-47
2023/10/08 11:49:50;;;;;;;0.77;0.50;;;;;;;;;;4826329;29;20224;-48
2023/10/08 11:52:21;;;;;;;1.00;0.40;;;;;;;;;;4825181;29;20231;-44
2023/10/08 11:54:52;;;;;;;0.85;0.50;;;;;;;;;;4826806;29;20244;-47
2023/10/08 11:57:21;;;;;;;0.22;0.22;;;;;;;;;;4833544;29;20240;-47
2023/10/08 11:59:52;;;;;;;2.05;0.82;;;;;;;;;;4827806;29;20228;-46
2023/10/08 12:02:20;;;;;;;0.82;0.50;;;;;;;;;;4825339;29;20255;-46
2023/10/08 12:04:48;;;;;;;4.45;0.70;;;;;;;;;;4823707;29;20232;-51
2023/10/08 12:07:17;;;;;;;0.77;0.50;;;;;;;;;;4824308;29;20717;-45
2023/10/08 12:09:48;;;;;;;0.73;0.40;;;;;;;;;;4823785;29;20697;-41
2023/10/08 12:12:18;;;;;;;1.30;0.45;;;;;;;;;;4821572;29;20243;-40
2023/10/08 12:14:47;;;;;;;1.45;0.60;;;;;;;;;;4823294;29;20314;-42
2023/10/08 12:17:17;;;;;;;1.48;0.40;;;;;;;;;;4825417;29;20224;-39
2023/10/08 12:19:45;;;;;;;0.45;0.30;;;;;;;;;;4826551;29;20224;-39
2023/10/08 12:22:17;;;;;;;0.55;0.40;;;;;;;;;;4824824;29;20594;-40
2023/10/08 12:24:45;;;;;;;3.60;0.50;;;;;;;;;;4824772;29;20781;-38
2023/10/08 12:27:12;;;;;;;2.05;0.60;;;;;;;;;;4824589;29;20654;-41
2023/10/08 12:29:39;;;;;;;0.65;0.40;;;;;;;;;;4829228;29;20734;-43
2023/10/08 12:32:17;;;;;;;1.00;0.50;;;;;;;;;;4842564;29;20712;-40
2023/10/08 12:34:45;;;;;;;1.15;0.43;;;;;;;;;;4843058;29;20231;-38
2023/10/08 12:37:14;;;;;;;4.47;1.40;;;;;;;;;;4856818;29;20231;-40
2023/10/08 12:39:59;;;;;;;2.08;1.10;;;;;;;;;;4837574;29;20310;-41
2023/10/08 12:42:27;;;;;;;2.75;0.90;;;;;;;;;;4806065;29;20718;-38
2023/10/08 12:44:57;;;;;;;2.83;0.68;;;;;;;;;;4831211;29;20303;-39
2023/10/08 12:47:28;;;;;;;1.58;0.60;;;;;;;;;;4842797;29;20227;-40
2023/10/08 12:49:57;;;;;;;1.02;0.60;;;;;;;;;;4841956;29;20263;-39
2023/10/08 12:52:27;;;;;;;3.25;1.00;;;;;;;;;;4833261;29;21152;-40
2023/10/08 12:54:58;;;;;;;1.42;0.40;;;;;;;;;;4828259;29;20629;-39
2023/10/08 12:57:31;;;;;;;1.42;0.43;;;;;;;;;;4833178;29;20637;-38
2023/10/08 13:00:02;;;;;;;1.25;0.47;;;;;;;;;;4806298;29;20598;-39
2023/10/08 13:02:29;;;;;;;0.65;0.40;;;;;;;;;;4806282;29;20272;-40
2023/10/08 13:04:59;;;;;;;1.02;0.50;;;;;;;;;;4806728;29;20258;-39
2023/10/08 13:07:26;;;;;;;2.22;0.70;;;;;;;;;;4806246;29;20235;-39
2023/10/08 13:09:53;;;;;;;2.78;0.90;;;;;;;;;;4820503;29;20598;-41
2023/10/08 13:12:21;;;;;;;1.75;0.43;;;;;;;;;;4806120;29;20240;-39
2023/10/08 13:14:48;;;;;;;0.98;0.50;;;;;;;;;;4806114;29;20317;-39
2023/10/08 13:17:15;;;;;;;4.90;1.00;;;;;;;;;;4805879;29;20247;-39
2023/10/08 13:19:45;;;;;;;2.72;0.50;;;;;;;;;;4806295;29;20661;-39
2023/10/08 13:22:19;;;;;;;1.50;0.60;;;;;;;;;;4812509;29;20231;-39
2023/10/08 13:24:48;;;;;;;1.15;0.32;;;;;;;;;;4829359;29;20307;-39
2023/10/08 13:27:16;;;;;;;3.10;0.60;;;;;;;;;;4824105;29;20239;-39
2023/10/08 13:29:43;;;;;;;0.77;0.30;;;;;;;;;;4829078;29;20716;-39
2023/10/08 13:32:17;;;;;;;2.70;0.75;;;;;;;;;;4842050;29;20242;-39
2023/10/08 13:34:45;;;;;;;1.30;0.70;;;;;;;;;;4842515;29;20243;-40
2023/10/08 13:37:16;;;;;;;1.17;0.70;;;;;;;;;;4841920;29;20732;-39
2023/10/08 13:39:44;;;;;;;2.10;0.77;;;;;;;;;;4831093;29;20220;-41
2023/10/08 13:42:18;;;;;;;3.47;0.60;;;;;;;;;;4823536;29;20235;-41
2023/10/08 13:44:46;;;;;;;0.75;0.40;;;;;;;;;;4821783;29;20236;-40
2023/10/08 13:47:15;;;;;;;1.55;0.40;;;;;;;;;;4822181;29;20770;-39
2023/10/08 13:49:42;;;;;;;1.98;0.60;;;;;;;;;;4822216;29;20240;-41
2023/10/08 13:52:10;;;;;;;2.75;0.40;;;;;;;;;;4821870;29;20323;-40
2023/10/08 13:54:41;;;;;;;4.97;0.75;;;;;;;;;;4823089;29;20584;-40
2023/10/08 13:57:14;;;;;;;2.88;0.73;;;;;;;;;;4823416;29;20239;-39
2023/10/08 13:59:42;;;;;;;1.20;0.50;;;;;;;;;;4823348;29;20247;-40
2023/10/08 14:02:15;;;;;;;1.73;0.60;;;;;;;;;;4821889;29;20550;-40
2023/10/08 14:04:43;;;;;;;2.35;0.90;;;;;;;;;;4835557;29;20636;-39
2023/10/08 14:07:16;;;;;;;2.15;0.60;;;;;;;;;;4829720;29;20231;-39
2023/10/08 14:09:45;;;;;;;1.17;0.63;;;;;;;;;;4837044;29;20234;-40
2023/10/08 14:12:16;;;;;;;1.42;0.60;;;;;;;;;;4835743;29;20680;-40
2023/10/08 14:14:46;;;;;;;4.60;1.05;;;;;;;;;;4833298;29;20224;-38
2023/10/08 14:17:39;;;;;;;1.10;0.43;;;;;;;;;;4832333;29;20266;-41
2023/10/08 14:20:12;;;;;;;1.33;0.60;;;;;;;;;;4832374;29;20309;-39
2023/10/08 14:22:41;;;;;;;0.93;0.40;;;;;;;;;;4836910;29;20242;-40
2023/10/08 14:25:17;;;;;;;2.13;0.60;;;;;;;;;;4837117;29;20227;-41
2023/10/08 14:27:51;;;;;;;2.75;0.63;;;;;;;;;;4834262;29;20239;-41
2023/10/08 14:30:24;;;;;;;4.63;0.57;;;;;;;;;;4823174;29;20224;-39
2023/10/08 14:32:51;;;;;;;1.25;0.50;;;;;;;;;;4825451;29;20244;-38
2023/10/08 14:43:37;;;;;;;1.92;0.52;;;;;;;;;;4824867;29;20257;-39
2023/10/08 14:46:06;;;;;;;2.70;0.93;;;;;;;;;;4825608;29;20226;-40
2023/10/08 14:48:35;;;;;;;1.92;0.73;;;;;;;;;;4826537;29;20239;-39
2023/10/08 14:51:03;;;;;;;1.77;0.75;;;;;;;;;;4826592;29;20749;-38
2023/10/08 14:53:31;;;;;;;2.58;1.05;;;;;;;;;;4825102;29;20252;-39
2023/10/08 14:55:58;;;;;;;3.80;0.80;;;;;;;;;;4825035;29;20228;-38
2023/10/08 14:58:26;;;;;;;6.82;0.85;;;;;;;;;;4825112;29;20296;-38
2023/10/08 15:00:54;;;;;;;3.03;0.90;;;;;;;;;;4838439;29;20262;-39
2023/10/08 15:03:21;;;;;;;2.10;0.82;;;;;;;;;;4826152;29;20236;-39
2023/10/08 15:05:49;;;;;;;2.75;1.05;;;;;;;;;;4826589;29;20239;-39
2023/10/08 15:08:18;;;;;;;4.20;1.38;;;;;;;;;;4826156;29;20235;-38
2023/10/08 15:10:49;;;;;;;2.67;0.90;;;;;;;;;;4826697;29;20232;-40
2023/10/08 15:13:16;;;;;;;2.88;1.25;;;;;;;;;;4826585;29;20248;-39
2023/10/08 15:15:43;;;;;;;7.70;0.90;;;;;;;;;;4825419;29;20240;-38
2023/10/08 15:18:11;;;;;;;6.88;1.52;;;;;;;;;;4823374;29;20697;-39
2023/10/08 15:20:40;;;;;;;7.40;1.63;;;;;;;;;;4826046;29;20227;-40
2023/10/08 15:23:11;;;;;;;4.50;1.30;;;;;;;;;;4825585;29;20228;-40
2023/10/08 15:25:39;;;;;;;3.15;0.85;;;;;;;;;;4825967;29;20228;-38
2023/10/08 15:28:07;;;;;;;3.70;1.00;;;;;;;;;;4825910;29;20247;-39
2023/10/08 15:30:35;;;;;;;1.45;0.65;;;;;;;;;;4825805;29;20244;-39
2023/10/08 15:33:03;;;;;;;3.13;1.13;;;;;;;;;;4825651;29;20292;-40
2023/10/08 15:35:30;;;;;;;2.35;0.90;;;;;;;;;;4825755;29;20733;-39
2023/10/08 15:37:57;;;;;;;2.85;1.10;;;;;;;;;;4825938;29;20676;-38
2023/10/08 15:40:24;;;;;;;4.93;1.00;;;;;;;;;;4825133;29;20369;-39
2023/10/08 15:42:53;;;;;;;2.33;0.90;;;;;;;;;;4827907;29;20234;-38
2023/10/08 15:45:23;;;;;;;2.10;0.70;;;;;;;;;;4831024;29;20228;-39
2023/10/08 15:47:51;;;;;;;5.13;0.68;;;;;;;;;;4833362;29;20220;-39
2023/10/08 15:50:24;;;;;;;2.08;0.52;;;;;;;;;;4831153;29;20235;-38
2023/10/08 15:52:54;;;;;;;6.30;0.70;;;;;;;;;;4834665;29;20247;-39
2023/10/08 15:55:22;;;;;;;1.30;0.68;;;;;;;;;;4834701;29;20235;-39
2023/10/08 15:57:54;;;;;;;3.08;0.90;;;;;;;;;;4829931;29;20231;-39
2023/10/08 16:00:21;;;;;;;1.98;0.80;;;;;;;;;;4841037;29;20714;-39
2023/10/08 16:02:48;;;;;;;2.97;0.82;;;;;;;;;;4830979;29;20247;-40
2023/10/08 16:05:16;;;;;;;1.75;0.80;;;;;;;;;;4824981;29;20320;-38
2023/10/08 16:07:45;;;;;;;5.20;0.80;;;;;;;;;;4825795;29;20236;-38
2023/10/08 16:10:12;;;;;;;2.65;0.75;;;;;;;;;;4824479;29;20224;-39
2023/10/08 16:12:40;;;;;;;4.05;0.93;;;;;;;;;;4824371;29;20239;-38
2023/10/08 16:15:07;;;;;;;2.75;1.00;;;;;;;;;;4827821;29;20223;-40
2023/10/08 16:17:38;;;;;;;1.13;0.75;;;;;;;;;;4841403;29;20228;-43
2023/10/08 16:20:13;;;;;;;3.10;1.05;;;;;;;;;;4831991;29;20242;-39
2023/10/08 16:22:44;;;;;;;5.05;0.80;;;;;;;;;;4834448;29;20293;-40
2023/10/08 16:25:15;;;;;;;2.38;0.90;;;;;;;;;;4837182;29;20254;-39
2023/10/08 16:27:48;;;;;;;3.10;1.35;;;;;;;;;;4828396;29;20236;-39
2023/10/08 16:30:17;;;;;;;1.13;0.70;;;;;;;;;;4833108;29;20235;-40
2023/10/08 16:32:45;;;;;;;2.35;0.90;;;;;;;;;;4830588;29;20241;-39
2023/10/08 16:35:12;;;;;;;1.30;0.88;;;;;;;;;;4832276;29;20228;-38
2023/10/08 16:37:40;;;;;;;2.35;0.90;;;;;;;;;;4832475;29;20219;-38
2023/10/08 16:40:08;;;;;;;2.03;0.65;;;;;;;;;;4832196;29;20228;-39
2023/10/08 16:42:35;;;;;;;1.58;0.68;;;;;;;;;;4832551;29;20572;-38